createdAt,value
2018-12-04T00:01:56.466Z,76.09
2018-12-04T00:04:26.706Z,74.58
2018-12-04T00:06:57.003Z,74.81
2018-12-04T00:09:27.351Z,74.93
2018-12-04T00:11:59.343Z,74.69
2018-12-04T00:14:29.575Z,75.02
2018-12-04T00:16:59.875Z,75.07
2018-12-04T00:19:30.155Z,75.43
2018-12-04T00:22:00.482Z,74.66
2018-12-04T00:24:30.679Z,75.06
2018-12-04T00:27:01.160Z,75.29
2018-12-04T00:29:31.635Z,74.73
2018-12-04T00:32:01.831Z,74.94
2018-12-04T00:34:32.177Z,74.68
2018-12-04T00:37:02.515Z,73.71
2018-12-04T00:39:32.812Z,74.48
2018-12-04T00:42:03.563Z,73.88
2018-12-04T00:44:33.981Z,74.55
2018-12-04T00:47:05.556Z,74.94
2018-12-04T00:49:35.966Z,73.96
2018-12-04T00:52:06.462Z,73.66
2018-12-04T00:54:36.787Z,72.95
2018-12-04T00:57:07.139Z,73.86
2018-12-04T00:59:37.578Z,73.73
2018-12-04T01:02:07.801Z,72.17
2018-12-04T01:04:38.004Z,73.66
2018-12-04T01:07:08.458Z,72.99
2018-12-04T01:09:38.671Z,73.43
2018-12-04T01:12:09.187Z,73.79
2018-12-04T01:14:39.636Z,74.19
2018-12-04T01:17:10.058Z,74.45
2018-12-04T01:19:40.378Z,73.20
2018-12-04T01:22:10.587Z,73.95
2018-12-04T01:24:40.891Z,73.60
2018-12-04T01:27:11.132Z,73.00
2018-12-04T01:29:41.504Z,73.80
2018-12-04T01:32:11.884Z,73.69
2018-12-04T01:34:42.541Z,74.03
2018-12-04T01:37:12.959Z,73.80
2018-12-04T01:39:43.474Z,73.07
2018-12-04T01:42:14.734Z,73.45
2018-12-04T01:44:45.030Z,73.44
2018-12-04T01:47:15.470Z,73.30
2018-12-04T01:49:45.814Z,73.40
2018-12-04T01:52:16.513Z,73.17
2018-12-04T01:54:46.734Z,73.31
2018-12-04T01:57:17.124Z,73.34
2018-12-04T01:59:47.357Z,73.26
2018-12-04T02:02:17.720Z,73.98
2018-12-04T02:04:48.137Z,74.14
2018-12-04T02:07:18.420Z,74.13
2018-12-04T02:09:48.682Z,74.90
2018-12-04T02:12:19.018Z,74.05
2018-12-04T02:14:49.606Z,74.19
2018-12-04T02:17:20.110Z,74.05
2018-12-04T02:19:50.492Z,74.93
2018-12-04T02:22:20.822Z,74.27
2018-12-04T02:24:50.992Z,73.35
2018-12-04T02:27:21.286Z,74.62
2018-12-04T02:29:51.460Z,73.91
2018-12-04T02:32:21.686Z,73.59
2018-12-04T02:34:51.955Z,73.53
2018-12-04T02:37:22.208Z,72.72
2018-12-04T02:39:52.616Z,73.07
2018-12-04T02:42:26.012Z,72.93
2018-12-04T02:44:56.350Z,72.14
2018-12-04T02:47:26.738Z,72.31
2018-12-04T02:49:57.008Z,72.42
2018-12-04T02:52:27.280Z,72.40
2018-12-04T02:54:57.548Z,72.73
2018-12-04T02:57:27.792Z,73.37
2018-12-04T02:59:58.316Z,72.85
2018-12-04T03:02:28.608Z,73.28
2018-12-04T03:04:58.794Z,72.32
2018-12-04T03:07:29.171Z,72.34
2018-12-04T03:09:59.388Z,72.82
2018-12-04T03:12:29.620Z,72.26
2018-12-04T03:14:59.937Z,72.61
2018-12-04T03:17:30.187Z,73.26
2018-12-04T03:20:00.766Z,73.14
2018-12-04T03:22:31.141Z,73.30
2018-12-04T03:25:01.314Z,72.89
2018-12-04T03:27:31.650Z,72.50
2018-12-04T03:30:03.606Z,72.63
2018-12-04T03:32:34.262Z,73.52
2018-12-04T03:35:05.138Z,73.50
2018-12-04T03:37:35.345Z,72.71
2018-12-04T03:40:08.228Z,73.33
2018-12-04T03:42:38.524Z,73.75
2018-12-04T03:45:10.400Z,73.24
2018-12-04T03:47:40.863Z,74.23
2018-12-04T03:50:11.108Z,74.74
2018-12-04T03:52:41.435Z,75.38
2018-12-04T03:55:11.733Z,74.80
2018-12-04T03:57:42.210Z,75.33
2018-12-04T04:00:12.690Z,75.56
2018-12-04T04:02:42.952Z,75.47
2018-12-04T04:05:13.246Z,75.47
2018-12-04T04:07:43.539Z,75.20
2018-12-04T04:10:13.810Z,75.45
2018-12-04T04:12:44.130Z,75.78
2018-12-04T04:15:14.319Z,75.65
2018-12-04T04:17:44.690Z,75.91
2018-12-04T04:20:14.999Z,76.98
2018-12-04T04:22:45.347Z,77.09
2018-12-04T04:25:16.427Z,76.62
2018-12-04T04:27:46.793Z,77.57
2018-12-04T04:30:17.016Z,77.62
2018-12-04T04:32:47.368Z,77.56
2018-12-04T04:35:19.610Z,77.74
2018-12-04T04:37:49.832Z,76.83
2018-12-04T04:40:20.150Z,76.97
2018-12-04T04:42:50.386Z,77.07
2018-12-04T04:45:20.582Z,77.61
2018-12-04T04:47:50.922Z,78.15
2018-12-04T04:50:21.247Z,78.24
2018-12-04T04:52:51.617Z,76.81
2018-12-04T04:55:21.902Z,76.71
2018-12-04T04:57:52.438Z,77.44
2018-12-04T05:00:22.799Z,77.62
2018-12-04T05:02:53.130Z,76.98
2018-12-04T05:05:23.379Z,77.93
2018-12-04T05:07:53.739Z,77.50
2018-12-04T05:10:24.241Z,77.35
2018-12-04T05:12:54.836Z,76.81
2018-12-04T05:15:25.187Z,76.76
2018-12-04T05:17:55.653Z,76.17
2018-12-04T05:20:27.104Z,75.64
2018-12-04T05:22:57.627Z,75.88
2018-12-04T05:25:27.977Z,76.24
2018-12-04T05:27:58.262Z,75.92
2018-12-04T05:30:28.543Z,75.21
2018-12-04T05:32:59.179Z,75.97
2018-12-04T05:35:29.384Z,76.00
2018-12-04T05:37:59.651Z,74.87
2018-12-04T05:40:29.939Z,75.33
2018-12-04T05:43:00.167Z,75.59
2018-12-04T05:45:30.488Z,74.99
2018-12-04T05:48:00.759Z,75.02
2018-12-04T05:50:31.139Z,75.47
2018-12-04T05:53:18.257Z,74.46
2018-12-04T05:55:48.576Z,74.20
2018-12-04T05:58:18.943Z,73.49
2018-12-04T06:00:50.367Z,73.75
2018-12-04T06:03:20.599Z,74.20
2018-12-04T06:05:50.856Z,74.62
2018-12-04T06:08:21.222Z,73.16
2018-12-04T06:10:51.442Z,72.62
2018-12-04T06:13:21.848Z,73.39
2018-12-04T06:15:52.058Z,73.91
2018-12-04T06:18:22.435Z,74.19
2018-12-04T06:20:52.738Z,74.22
2018-12-04T06:23:23.073Z,74.87
2018-12-04T06:25:53.388Z,75.11
2018-12-04T06:28:23.727Z,74.16
2018-12-04T06:30:54.027Z,74.04
2018-12-04T06:33:24.346Z,75.11
2018-12-04T06:35:54.676Z,75.56
2018-12-04T06:38:24.898Z,75.49
2018-12-04T06:40:55.205Z,75.10
2018-12-04T06:43:25.450Z,76.86
2018-12-04T06:45:55.662Z,77.52
2018-12-04T06:48:26.103Z,76.98
2018-12-04T06:50:56.382Z,77.09
2018-12-04T06:53:26.650Z,77.54
2018-12-04T06:55:56.827Z,78.06
2018-12-04T06:58:27.269Z,78.37
2018-12-04T07:00:57.508Z,77.72
2018-12-04T07:03:27.855Z,77.96
2018-12-04T07:05:58.563Z,77.57
2018-12-04T07:08:29.157Z,78.53
2018-12-04T07:10:59.421Z,78.66
2018-12-04T07:13:29.844Z,78.57
2018-12-04T07:16:00.229Z,76.10
2018-12-04T07:18:31.385Z,77.20
2018-12-04T07:21:01.623Z,76.34
2018-12-04T07:23:32.060Z,76.68
2018-12-04T07:26:02.562Z,76.91
2018-12-04T07:28:32.791Z,74.75
2018-12-04T07:31:03.018Z,76.05
2018-12-04T07:33:33.500Z,76.43
2018-12-04T07:36:03.957Z,77.54
2018-12-04T07:38:34.189Z,76.31
2018-12-04T07:41:04.602Z,75.96
2018-12-04T07:43:34.969Z,76.85
2018-12-04T07:46:05.126Z,76.89
2018-12-04T07:48:35.667Z,77.56
2018-12-04T07:51:05.917Z,76.96
2018-12-04T07:53:36.343Z,75.69
2018-12-04T07:56:06.665Z,76.33
2018-12-04T07:58:37.038Z,75.46
2018-12-04T08:01:07.440Z,75.55
2018-12-04T08:03:37.777Z,75.39
2018-12-04T08:06:11.013Z,75.13
2018-12-04T08:08:41.402Z,75.76
2018-12-04T08:11:11.758Z,74.84
2018-12-04T08:13:41.951Z,74.65
2018-12-04T08:16:12.403Z,75.36
2018-12-04T08:18:42.660Z,75.01
2018-12-04T08:21:13.068Z,75.16
2018-12-04T08:23:43.759Z,74.29
2018-12-04T08:26:14.146Z,74.58
2018-12-04T08:28:44.369Z,74.28
2018-12-04T08:31:14.586Z,75.50
2018-12-04T08:33:44.958Z,74.47
2018-12-04T08:36:15.248Z,75.33
2018-12-04T08:38:45.614Z,74.12
2018-12-04T08:41:15.843Z,74.13
2018-12-04T08:43:46.099Z,74.43
2018-12-04T08:46:16.299Z,73.60
2018-12-04T08:48:46.689Z,74.17
2018-12-04T08:51:17.158Z,74.22
2018-12-04T08:53:47.383Z,75.47
2018-12-04T08:56:17.791Z,76.03
2018-12-04T09:01:27.269Z,76.97
2018-12-04T09:03:59.290Z,76.54
2018-12-04T09:06:33.716Z,78.58
2018-12-04T09:09:07.053Z,78.09
2018-12-04T09:11:39.287Z,78.44
2018-12-04T09:14:09.708Z,78.26
2018-12-04T09:16:40.062Z,77.73
2018-12-04T09:19:10.545Z,79.28
2018-12-04T09:21:41.000Z,79.32
2018-12-04T09:24:11.478Z,81.02
2018-12-04T09:26:41.981Z,81.71
2018-12-04T09:29:12.496Z,81.82
2018-12-04T09:31:43.113Z,81.53
2018-12-04T09:34:13.715Z,80.36
2018-12-04T09:36:45.587Z,80.98
2018-12-04T09:39:15.947Z,79.61
2018-12-04T09:41:46.262Z,79.67
2018-12-04T09:44:16.624Z,78.48
2018-12-04T09:46:47.122Z,78.17
2018-12-04T09:49:17.531Z,77.39
2018-12-04T09:51:48.067Z,78.26
2018-12-04T09:54:18.514Z,77.57
2018-12-04T09:56:49.008Z,78.50
2018-12-04T09:59:19.399Z,77.69
2018-12-04T10:01:49.789Z,76.87
2018-12-04T10:04:19.984Z,76.69
2018-12-04T10:06:50.310Z,77.14
2018-12-04T10:09:20.641Z,76.75
2018-12-04T10:11:51.044Z,77.71
2018-12-04T10:14:21.393Z,77.35
2018-12-04T10:16:51.729Z,77.50
2018-12-04T10:19:22.036Z,76.58
2018-12-04T10:21:52.441Z,77.96
2018-12-04T10:24:22.820Z,75.86
2018-12-04T10:26:57.467Z,76.47
2018-12-04T10:29:28.053Z,76.62
2018-12-04T10:31:58.556Z,76.17
2018-12-04T10:34:29.018Z,75.14
2018-12-04T10:36:59.430Z,75.15
2018-12-04T10:39:29.652Z,75.11
2018-12-04T10:42:00.017Z,75.54
2018-12-04T10:44:30.372Z,75.23
2018-12-04T10:47:00.574Z,75.88
2018-12-04T10:49:32.020Z,76.39
2018-12-04T10:52:02.364Z,78.42
2018-12-04T10:54:32.794Z,79.86
2018-12-04T10:57:03.301Z,77.80
2018-12-04T10:59:33.767Z,77.15
2018-12-04T11:02:09.280Z,78.35
2018-12-04T11:04:39.634Z,78.10
2018-12-04T11:07:09.943Z,77.43
2018-12-04T11:09:40.284Z,78.37
2018-12-04T11:12:12.368Z,78.53
2018-12-04T11:14:42.953Z,76.72
2018-12-04T11:17:13.295Z,77.89
2018-12-04T11:19:43.654Z,78.01
2018-12-04T11:22:13.964Z,76.55
2018-12-04T11:24:44.350Z,76.45
2018-12-04T11:27:14.780Z,77.62
2018-12-04T11:29:45.307Z,76.22
2018-12-04T11:32:15.801Z,75.38
2018-12-04T11:34:46.288Z,76.17
2018-12-04T11:37:16.567Z,76.18
2018-12-04T11:39:46.837Z,74.96
2018-12-04T11:42:17.226Z,75.18
2018-12-04T11:44:48.615Z,75.14
2018-12-04T11:47:19.721Z,74.00
2018-12-04T11:49:50.172Z,73.55
2018-12-04T11:52:20.601Z,73.37
2018-12-04T11:54:51.134Z,73.29
2018-12-04T11:57:22.453Z,73.40
2018-12-04T11:59:52.915Z,72.44
2018-12-04T12:02:23.215Z,71.78
2018-12-04T12:04:53.527Z,72.45
2018-12-04T12:07:25.983Z,73.04
2018-12-04T12:09:56.177Z,72.25
2018-12-04T12:12:26.428Z,73.51
2018-12-04T12:14:56.685Z,71.88
2018-12-04T12:17:27.121Z,71.83
2018-12-04T12:19:57.538Z,71.52
2018-12-04T12:22:27.930Z,70.88
2018-12-04T12:24:58.326Z,69.85
2018-12-04T12:27:28.694Z,71.27
2018-12-04T12:29:59.218Z,70.74
2018-12-04T12:32:29.780Z,71.17
2018-12-04T12:35:00.094Z,71.28
2018-12-04T12:37:30.497Z,72.38
2018-12-04T12:40:00.943Z,71.58
2018-12-04T12:42:31.527Z,71.62
2018-12-04T12:45:01.891Z,73.28
2018-12-04T12:47:34.444Z,71.52
2018-12-04T12:50:06.160Z,71.50
2018-12-04T12:52:36.409Z,72.82
2018-12-04T12:55:07.388Z,73.12
2018-12-04T12:57:37.693Z,73.89
2018-12-04T13:00:10.295Z,73.56
2018-12-04T13:02:41.514Z,72.88
2018-12-04T13:05:11.940Z,73.55
2018-12-04T13:07:42.372Z,70.99
2018-12-04T13:10:12.713Z,71.73
2018-12-04T13:12:43.090Z,70.96
2018-12-04T13:15:13.336Z,70.20
2018-12-04T13:17:43.753Z,69.51
2018-12-04T13:20:14.174Z,70.51
2018-12-04T13:22:44.412Z,70.49
2018-12-04T13:25:14.845Z,70.16
2018-12-04T13:27:45.134Z,69.38
2018-12-04T13:30:15.495Z,70.10
2018-12-04T13:32:46.944Z,70.00
2018-12-04T13:35:17.243Z,69.59
2018-12-04T13:37:47.473Z,70.40
2018-12-04T13:40:17.750Z,71.17
2018-12-04T13:42:48.001Z,69.89
2018-12-04T13:45:18.606Z,71.70
2018-12-04T13:47:48.842Z,71.69
2018-12-04T13:50:19.182Z,71.58
2018-12-04T13:52:49.521Z,71.92
2018-12-04T13:55:19.874Z,71.31
2018-12-04T13:57:50.817Z,72.51
2018-12-04T14:00:21.599Z,69.97
2018-12-04T14:02:52.118Z,70.49
2018-12-04T14:05:22.479Z,69.92
2018-12-04T14:07:52.779Z,69.51
2018-12-04T14:10:23.171Z,70.92
2018-12-04T14:12:53.525Z,71.34
2018-12-04T14:15:23.767Z,72.43
2018-12-04T14:17:53.965Z,74.89
2018-12-04T14:20:24.434Z,77.45
2018-12-04T14:22:54.904Z,79.43
2018-12-04T14:25:25.107Z,81.20
2018-12-04T14:27:55.382Z,79.43
2018-12-04T14:30:25.801Z,81.21
2018-12-04T14:32:56.164Z,80.20
2018-12-04T14:35:26.465Z,82.40
2018-12-04T14:37:58.098Z,82.73
2018-12-04T14:40:28.457Z,82.12
2018-12-04T14:42:58.727Z,82.43
2018-12-04T14:45:29.301Z,82.25
2018-12-04T14:47:59.760Z,81.92
2018-12-04T14:50:30.415Z,82.47
2018-12-04T14:53:00.862Z,82.33
2018-12-04T14:55:31.688Z,81.78
2018-12-04T14:58:01.953Z,81.33
2018-12-04T15:00:32.472Z,82.80
2018-12-04T15:03:03.213Z,82.92
2018-12-04T15:05:33.722Z,82.31
2018-12-04T15:08:04.150Z,82.48
2018-12-04T15:10:34.691Z,81.70
2018-12-04T15:13:05.337Z,79.42
2018-12-04T15:15:35.772Z,79.96
2018-12-04T15:18:06.076Z,79.04
2018-12-04T15:20:36.459Z,81.13
2018-12-04T15:23:07.008Z,82.03
2018-12-04T15:25:37.478Z,81.50
2018-12-04T15:28:07.988Z,80.82
2018-12-04T15:30:38.686Z,81.30
2018-12-04T15:33:09.196Z,80.44
2018-12-04T15:35:39.526Z,81.50
2018-12-04T15:38:10.234Z,80.44
2018-12-04T15:40:40.582Z,78.51
2018-12-04T15:43:10.922Z,79.43
2018-12-04T15:45:41.351Z,80.41
2018-12-04T15:48:11.694Z,81.92
2018-12-04T15:50:42.010Z,82.03
2018-12-04T15:53:12.448Z,81.86
2018-12-04T15:55:44.255Z,81.74
2018-12-04T15:58:14.694Z,82.52
2018-12-04T16:00:44.917Z,83.48
2018-12-04T16:03:15.302Z,83.92
2018-12-04T16:05:45.565Z,83.75
2018-12-04T16:08:15.983Z,83.68
2018-12-04T16:10:46.226Z,84.50
2018-12-04T16:13:16.803Z,83.05
2018-12-04T16:15:47.374Z,82.90
2018-12-04T16:18:17.668Z,83.57
2018-12-04T16:20:48.761Z,85.25
2018-12-04T16:23:19.241Z,83.78
2018-12-04T16:25:49.683Z,83.49
2018-12-04T16:28:20.009Z,84.42
2018-12-04T16:30:50.363Z,83.62
2018-12-04T16:33:21.786Z,83.15
2018-12-04T16:35:52.190Z,84.60
2018-12-04T16:38:22.436Z,82.47
2018-12-04T16:40:52.815Z,83.10
2018-12-04T16:43:23.205Z,84.04
2018-12-04T16:45:53.759Z,85.18
2018-12-04T16:48:24.189Z,83.72
2018-12-04T16:50:54.603Z,84.18
2018-12-04T16:53:25.001Z,83.74
2018-12-04T16:55:55.885Z,84.15
2018-12-04T16:58:26.230Z,83.62
2018-12-04T17:00:56.715Z,85.33
2018-12-04T17:03:27.073Z,85.59
2018-12-04T17:05:57.333Z,85.72
2018-12-04T17:08:27.733Z,85.90
2018-12-04T17:10:58.070Z,84.55
2018-12-04T17:13:28.487Z,84.81
2018-12-04T17:15:59.165Z,85.03
2018-12-04T17:18:37.499Z,84.89
2018-12-04T17:21:03.023Z,85.57
2018-12-04T17:23:34.261Z,85.30
2018-12-04T17:26:04.793Z,85.82
2018-12-04T17:28:35.125Z,85.60
2018-12-04T17:31:05.369Z,84.33
2018-12-04T17:33:36.300Z,85.43
2018-12-04T17:36:06.747Z,86.30
2018-12-04T17:38:37.216Z,84.98
2018-12-04T17:41:07.455Z,85.51
2018-12-04T17:43:39.138Z,85.57
2018-12-04T17:46:09.447Z,84.74
2018-12-04T17:48:39.882Z,85.09
2018-12-04T17:51:10.591Z,84.96
2018-12-04T17:53:42.251Z,85.85
2018-12-04T17:56:14.684Z,85.26
2018-12-04T17:58:44.949Z,84.89
2018-12-04T18:01:15.259Z,86.10
2018-12-04T18:03:47.478Z,85.88
2018-12-04T18:06:17.901Z,85.98
2018-12-04T18:08:48.294Z,85.35
2018-12-04T18:11:20.658Z,84.65
2018-12-04T18:13:52.747Z,80.76
2018-12-04T18:16:23.185Z,78.68
2018-12-04T18:18:53.571Z,79.83
2018-12-04T18:21:23.914Z,77.90
2018-12-04T18:23:55.641Z,77.49
2018-12-04T18:26:33.333Z,78.38
2018-12-04T18:29:05.511Z,79.49
2018-12-04T18:31:35.966Z,78.96
2018-12-04T18:34:06.229Z,79.23
2018-12-04T18:36:36.436Z,78.67
2018-12-04T18:39:08.890Z,79.07
2018-12-04T18:41:40.880Z,77.69
2018-12-04T18:44:14.191Z,77.41
2018-12-04T18:46:44.534Z,78.99
2018-12-04T18:49:14.786Z,79.07
2018-12-04T18:51:45.455Z,79.97
2018-12-04T18:54:15.982Z,80.74
2018-12-04T18:56:46.243Z,80.11
2018-12-04T18:59:16.786Z,79.31
2018-12-04T19:01:47.291Z,81.57
2018-12-04T19:04:17.535Z,82.02
2018-12-04T19:06:47.785Z,82.39
2018-12-04T19:09:18.247Z,82.93
2018-12-04T19:11:48.490Z,82.93
2018-12-04T19:14:18.709Z,82.49
2018-12-04T19:16:49.033Z,83.21
2018-12-04T19:19:19.270Z,81.29
2018-12-04T19:21:49.729Z,81.81
2018-12-04T19:24:19.904Z,81.27
2018-12-04T19:29:29.843Z,81.33
2018-12-04T19:32:00.463Z,81.17
2018-12-04T19:34:30.929Z,81.16
2018-12-04T19:37:01.344Z,80.89
2018-12-04T19:39:31.863Z,81.06
2018-12-04T19:42:02.251Z,81.81
2018-12-04T19:44:32.830Z,81.49
2018-12-04T19:47:03.500Z,81.96
2018-12-04T19:49:34.023Z,82.02
2018-12-04T19:52:04.710Z,81.87
2018-12-04T19:54:35.351Z,81.95
2018-12-04T19:57:05.907Z,82.22
2018-12-04T19:59:36.516Z,83.17
2018-12-04T20:02:07.038Z,83.16
2018-12-04T20:04:37.772Z,83.50
2018-12-04T20:07:08.530Z,82.58
2018-12-04T20:09:39.238Z,82.73
2018-12-04T20:12:09.872Z,83.43
2018-12-04T20:14:40.486Z,82.58
2018-12-04T20:17:11.021Z,82.58
2018-12-04T20:19:41.269Z,83.13
2018-12-04T20:22:12.037Z,82.68
2018-12-04T20:24:43.529Z,83.61
2018-12-04T20:27:14.585Z,83.15
2018-12-04T20:29:44.907Z,83.80
2018-12-04T20:32:15.268Z,83.23
2018-12-04T20:34:45.639Z,83.23
2018-12-04T20:37:18.028Z,83.05
2018-12-04T20:39:48.553Z,83.62
2018-12-04T20:42:23.228Z,84.26
2018-12-04T20:44:51.867Z,83.89
2018-12-04T20:47:22.088Z,84.60
2018-12-04T20:49:52.508Z,83.07
2018-12-04T20:52:22.743Z,82.89
2018-12-04T20:54:53.070Z,83.44
2018-12-04T20:57:23.514Z,83.36
2018-12-04T20:59:53.790Z,84.72
2018-12-04T21:02:24.298Z,83.92
2018-12-04T21:04:55.681Z,82.27
2018-12-04T21:07:27.261Z,82.98
2018-12-04T21:09:57.789Z,83.45
2018-12-04T21:12:28.716Z,83.91
2018-12-04T21:14:59.409Z,83.03
2018-12-04T21:17:29.818Z,82.00
2018-12-04T21:20:00.074Z,82.08
2018-12-04T21:22:30.532Z,83.11
2018-12-04T21:25:00.731Z,83.67
2018-12-04T21:27:36.182Z,83.16
2018-12-04T21:30:12.425Z,83.45
2018-12-04T21:32:48.067Z,83.49
2018-12-04T21:35:23.494Z,84.42
2018-12-04T21:37:59.017Z,84.67
2018-12-04T21:40:34.647Z,85.40
2018-12-04T21:43:11.030Z,84.69
2018-12-04T21:45:46.400Z,83.80
2018-12-04T21:48:16.855Z,83.67
2018-12-04T21:50:47.190Z,83.76
2018-12-04T21:53:17.528Z,84.17
2018-12-04T21:55:47.909Z,84.21
2018-12-04T21:58:24.385Z,85.28
2018-12-04T22:00:54.841Z,85.76
2018-12-04T22:03:25.180Z,85.96
2018-12-04T22:05:55.654Z,85.23
2018-12-04T22:08:26.011Z,85.06
2018-12-04T22:10:56.320Z,84.79
2018-12-04T22:13:26.758Z,84.71
2018-12-04T22:15:57.037Z,83.43
2018-12-04T22:18:27.465Z,82.88
2018-12-04T22:20:57.743Z,83.39
2018-12-04T22:23:28.038Z,83.97
2018-12-04T22:25:58.457Z,85.66
2018-12-04T22:28:28.914Z,85.25
2018-12-04T22:30:59.185Z,85.81
2018-12-04T22:33:29.435Z,87.07
2018-12-04T22:35:59.839Z,86.72
2018-12-04T22:38:30.201Z,85.26
2018-12-04T22:41:00.679Z,86.10
2018-12-04T22:43:30.904Z,86.60
2018-12-04T22:46:01.325Z,85.91
2018-12-04T22:48:31.557Z,86.22
2018-12-04T22:51:01.812Z,84.48
2018-12-04T22:53:32.206Z,84.47
2018-12-04T22:56:02.532Z,84.63
2018-12-04T22:58:32.815Z,84.61
2018-12-04T23:01:03.666Z,84.68
2018-12-04T23:03:35.869Z,84.97
2018-12-04T23:06:06.181Z,85.60
2018-12-04T23:11:23.302Z,85.34
2018-12-04T23:13:53.580Z,85.17
2018-12-04T23:16:24.313Z,85.21
2018-12-04T23:18:54.677Z,84.77
2018-12-04T23:21:25.011Z,85.56
2018-12-04T23:23:55.467Z,85.61
2018-12-04T23:26:25.967Z,84.87
2018-12-04T23:28:56.410Z,85.52
2018-12-04T23:31:26.727Z,84.78
2018-12-04T23:33:57.003Z,84.59
2018-12-04T23:36:27.277Z,84.92
2018-12-04T23:38:57.587Z,85.03
2018-12-04T23:41:27.775Z,84.93
2018-12-04T23:43:58.147Z,84.71
2018-12-04T23:46:28.545Z,85.12
2018-12-04T23:48:58.779Z,84.94
2018-12-04T23:51:28.989Z,86.29
2018-12-04T23:53:59.223Z,85.53
2018-12-04T23:56:30.594Z,85.84
2018-12-04T23:59:01.095Z,85.59
